Flight Track Log - Related Links

Times and Time Zones

All times are in EDT time to prevent confusion due to time zone crossing. See the LBQ792 flight status page for this flight to view local times or setup timezone preferences in your user account.

Time Position Orientation Groundspeed Altitude Reporting Facility
EDT Latitude Longitude Course Direction KTS MPH feet Rate Location/Type
Fri 11:16:24 PM 43.0667 -78.9167 152° Southeast 137 158 4,300  Level Buffalo TRACON
Fri 11:17:00 PM 43.0403 -78.9244 192° South 147 169 5,100 1,375 Climbing Cleveland Center
Fri 11:18:00 PM 42.9986 -78.9339 189° South 160 184 6,500 1,400 Climbing Cleveland Center
Fri 11:19:00 PM 42.9550 -78.9436 189° South 160 184 7,900 1,200 Climbing Cleveland Center
Fri 11:20:00 PM 42.9094 -78.9561 191° South 171 197 8,900 1,100 Climbing Cleveland Center
Fri 11:21:00 PM 42.8533 -78.9633 185° South 185 213 10,100 1,350 Climbing Cleveland Center
Fri 11:22:00 PM 42.8014 -78.9789 192° South 191 220 11,600 1,300 Climbing Cleveland Center
Fri 11:23:00 PM 42.7453 -78.9914 189° South 196 226 12,700 1,100 Climbing Cleveland Center
Fri 11:24:00 PM 42.6933 -79.0042 190° South 196 226 13,800 1,100 Climbing Cleveland Center
Fri 11:25:00 PM 42.6372 -79.0197 192° South 201 231 14,900 1,000 Climbing Cleveland Center
Fri 11:26:00 PM 42.5792 -79.0322 189° South 201 231 15,800 900 Climbing Cleveland Center
Fri 11:27:00 PM 42.5208 -79.0450 189° South 206 237 16,700 850 Climbing Cleveland Center
Fri 11:28:00 PM 42.4606 -79.0578 189° South 212 244 17,500 700 Climbing Cleveland Center
Fri 11:29:00 PM 42.3961 -79.0761 192° South 227 261 18,100 700 Climbing Cleveland Center
Fri 11:30:00 PM 42.3358 -79.0889 189° South 227 261 18,900 750 Climbing Cleveland Center
Fri 11:31:00 PM 42.2756 -79.1014 189° South 227 261 19,600 550 Climbing Cleveland Center
Fri 11:32:00 PM 42.2133 -79.1197 192° South 222 255 20,000 200 Climbing Cleveland Center
Fri 11:33:00 PM 42.1489 -79.1381 192° South 233 268 20,000  Level Cleveland Center
Fri 11:34:00 PM 42.0806 -79.1619 195° South 247 284 20,000  Level Cleveland Center
Fri 11:35:00 PM 42.0119 -79.1886 196° South 252 290 20,000  Level Cleveland Center
Fri 11:36:00 PM 41.9414 -79.2125 194° South 262 302 20,000  Level Cleveland Center
Fri 11:37:00 PM 41.8833 -79.2361 197° South 256 295 20,000  Level Cleveland Center
Fri 11:38:00 PM 41.8128 -79.2600 194° South 262 302 20,000  Level Cleveland Center
Fri 11:39:00 PM 41.7358 -79.2892 196° South 262 302 20,000  Level Cleveland Center
Fri 11:40:00 PM 41.6653 -79.3131 194° South 262 302 20,000  Level Cleveland Center
Fri 11:41:00 PM 41.5989 -79.3392 196° South 262 302 20,000  Level Cleveland Center
Fri 11:42:00 PM 41.5303 -79.3656 196° South 262 302 20,000  Level Cleveland Center
Fri 11:43:00 PM 41.4661 -79.3889 195° South 262 302 20,000 -450 Level Cleveland Center
Fri 11:44:00 PM 41.3869 -79.4153 194° South 262 302 19,100 -950 Descending Cleveland Center
Fri 11:45:00 PM 41.3103 -79.4442 196° South 267 307 18,100 -800 Descending Cleveland Center
Fri 11:46:00 PM 41.2314 -79.4733 196° South 279 321 17,500 -800 Descending Cleveland Center
Fri 11:47:00 PM 41.1567 -79.5103 200° South 290 334 16,500 -1,150 Descending Cleveland Center
Fri 11:48:00 PM 41.0800 -79.5583 205° Southwest 300 345 15,200 -1,250 Descending Cleveland Center
Fri 11:49:00 PM 41.0075 -79.6092 208° Southwest 300 345 14,000 -1,250 Descending Cleveland Center
Fri 11:50:00 PM 40.9369 -79.6622 210° Southwest 300 345 12,700 -1,300 Descending Cleveland Center
Fri 11:51:00 PM 40.8686 -79.7128 209° Southwest 290 334 11,400 -1,250 Descending Cleveland Center
Fri 11:52:00 PM 40.8000 -79.7467 201° Southwest 284 327 10,200 -1,000 Descending Cleveland Center
Fri 11:53:00 PM 40.7336 -79.7775 199° South 272 313 9,400 -1,150 Descending Cleveland Center
Fri 11:54:00 PM 40.6650 -79.8058 197° South 267 307 7,900 -1,500 Descending Cleveland Center
Fri 11:55:00 PM 40.5964 -79.8311 196° South 267 307 6,400 -1,450 Descending Cleveland Center
Fri 11:56:00 PM 40.5339 -79.8592 199° South 256 295 5,000 -1,350 Descending Cleveland Center
Fri 11:57:00 PM 40.4736 -79.8897 201° Southwest 245 282 3,700 -1,300 Descending Cleveland Center
Fri 11:58:00 PM 40.4123 -79.9075 189° South  Level FlightAware Approximate
Sat 12:05:00 AM 40.3500 -79.9167 180° South  Level FlightAware Approximate
Sat 12:06:00 AM 40.3544 -79.9302 180° South  Level Estimated
Sat 12:07:00 AM 40.3544 -79.9302 180° South  Level Estimated
Sat 12:08:00 AM 40.3544 -79.9302 180° South  Level Estimated

Login

Don't have an account? Register now (free) for customized features, flight alerts, and more!